createdAt,value
2018-07-20T00:01:15.654Z,99048.06
2018-07-20T00:04:18.191Z,99054.40
2018-07-20T00:07:21.655Z,99048.08
2018-07-20T00:10:24.182Z,99045.95
2018-07-20T00:13:26.555Z,99043.12
2018-07-20T00:16:30.199Z,99044.10
2018-07-20T00:19:32.547Z,99042.67
2018-07-20T00:22:34.949Z,99042.13
2018-07-20T00:25:37.578Z,99040.18
2018-07-20T00:28:41.123Z,99038.13
2018-07-20T00:31:43.664Z,99034.91
2018-07-20T00:34:46.125Z,99034.34
2018-07-20T00:37:50.570Z,99028.41
2018-07-20T00:40:54.042Z,99028.22
2018-07-20T00:43:56.633Z,99027.72
2018-07-20T00:46:59.286Z,99020.33
2018-07-20T00:50:01.585Z,99018.81
2018-07-20T00:53:03.970Z,99026.51
2018-07-20T00:56:06.397Z,99014.00
2018-07-20T00:59:08.719Z,99018.70
2018-07-20T01:02:12.134Z,99012.07
2018-07-20T01:05:14.611Z,99017.77
2018-07-20T01:08:18.206Z,99009.75
2018-07-20T01:11:20.732Z,99007.05
2018-07-20T01:14:23.195Z,99023.42
2018-07-20T01:17:25.545Z,99016.86
2018-07-20T01:20:27.930Z,99016.91
2018-07-20T01:23:31.418Z,99018.54
2018-07-20T01:26:33.941Z,99021.70
2018-07-20T01:29:36.383Z,99022.83
2018-07-20T01:32:38.929Z,99019.52
2018-07-20T01:35:41.443Z,99013.53
2018-07-20T01:38:43.971Z,99019.22
2018-07-20T01:41:47.329Z,99017.52
2018-07-20T01:44:49.735Z,99023.82
2018-07-20T01:47:52.206Z,99019.35
2018-07-20T01:50:54.811Z,99015.36
2018-07-20T01:53:57.484Z,99011.25
2018-07-20T01:57:00.015Z,99008.56
2018-07-20T02:00:02.514Z,99008.06
2018-07-20T02:03:05.149Z,99009.38
2018-07-20T02:06:08.566Z,99008.56
2018-07-20T02:09:11.927Z,99011.01
2018-07-20T02:12:14.273Z,99001.95
2018-07-20T02:15:16.654Z,99005.89
2018-07-20T02:18:18.997Z,99009.20
2018-07-20T02:21:21.297Z,99009.83
2018-07-20T02:24:23.573Z,99006.12
2018-07-20T02:27:25.836Z,99008.80
2018-07-20T02:30:28.179Z,99006.09
2018-07-20T02:33:30.470Z,99006.78
2018-07-20T02:36:32.760Z,99001.72
2018-07-20T02:39:35.001Z,99000.41
2018-07-20T02:42:37.330Z,98998.77
2018-07-20T02:45:40.679Z,98999.70
2018-07-20T02:48:42.977Z,99000.25
2018-07-20T02:51:45.272Z,99004.33
2018-07-20T02:54:47.750Z,99001.34
2018-07-20T02:57:50.169Z,98995.95
2018-07-20T03:00:52.548Z,98997.39
2018-07-20T03:03:55.052Z,98995.45
2018-07-20T03:06:57.452Z,98990.29
2018-07-20T03:09:59.859Z,98994.48
2018-07-20T03:13:02.203Z,98986.73
2018-07-20T03:16:05.516Z,98983.92
2018-07-20T03:19:08.153Z,98987.05
2018-07-20T03:22:10.483Z,98991.80
2018-07-20T03:25:13.844Z,98981.66
2018-07-20T03:28:16.314Z,98988.85
2018-07-20T03:31:18.715Z,98992.20
2018-07-20T03:34:22.189Z,98989.73
2018-07-20T03:37:24.651Z,98996.06
2018-07-20T03:40:27.164Z,98993.17
2018-07-20T03:43:30.641Z,99000.21
2018-07-20T03:46:33.197Z,98994.11
2018-07-20T03:49:35.581Z,98993.98
2018-07-20T03:52:37.917Z,98983.49
2018-07-20T03:55:40.253Z,98983.33
2018-07-20T03:58:43.777Z,98977.98
2018-07-20T04:01:46.152Z,98983.78
2018-07-20T04:04:48.606Z,98979.23
2018-07-20T04:07:52.993Z,98979.86
2018-07-20T04:10:55.507Z,98979.84
2018-07-20T04:13:57.948Z,98976.83
2018-07-20T04:17:00.419Z,98965.97
2018-07-20T04:20:02.982Z,98967.67
2018-07-20T04:23:06.429Z,98966.08
2018-07-20T04:26:08.857Z,98968.39
2018-07-20T04:29:11.259Z,98964.77
2018-07-20T04:32:13.885Z,98966.22
2018-07-20T04:35:16.366Z,98963.77
2018-07-20T04:38:18.895Z,98963.70
2018-07-20T04:41:21.137Z,98965.45
2018-07-20T04:44:23.361Z,98962.18
2018-07-20T04:47:25.801Z,98966.77
2018-07-20T04:50:30.093Z,98972.96
2018-07-20T04:53:33.479Z,98961.64
2018-07-20T04:56:35.881Z,98967.55
2018-07-20T04:59:40.266Z,98971.64
2018-07-20T05:02:42.678Z,98966.09
2018-07-20T05:05:45.247Z,98971.91
2018-07-20T05:08:47.695Z,98962.86
2018-07-20T05:11:50.278Z,98962.91
2018-07-20T05:14:52.820Z,98963.16
2018-07-20T05:17:55.284Z,98955.13
2018-07-20T05:20:57.615Z,98962.83
2018-07-20T05:23:59.879Z,98947.34
2018-07-20T05:27:02.140Z,98939.60
2018-07-20T05:30:04.907Z,98948.55
2018-07-20T05:33:07.270Z,98950.45
2018-07-20T05:36:15.198Z,98941.69
2018-07-20T05:39:18.527Z,98946.53
2018-07-20T05:42:21.010Z,98941.41
2018-07-20T05:45:25.701Z,98942.06
2018-07-20T05:48:29.201Z,98936.89
2018-07-20T05:51:35.513Z,98932.21
2018-07-20T05:54:38.811Z,98936.47
2018-07-20T05:57:41.220Z,98926.97
2018-07-20T06:01:47.567Z,98922.44
2018-07-20T06:04:50.098Z,98921.67
2018-07-20T06:07:58.254Z,98919.52
2018-07-20T06:11:01.751Z,98921.00
2018-07-20T06:14:04.193Z,98919.08
2018-07-20T06:17:06.580Z,98907.34
2018-07-20T06:20:12.892Z,98898.97
2018-07-20T06:23:16.378Z,98898.15
2018-07-20T06:26:19.832Z,98909.13
2018-07-20T06:29:22.051Z,98927.58
2018-07-20T06:32:27.935Z,98913.62
2018-07-20T06:35:33.895Z,98930.95
2018-07-20T06:38:36.611Z,98906.20
2018-07-20T06:41:55.541Z,98884.75
2018-07-20T06:44:57.910Z,98874.68
2018-07-20T06:48:00.194Z,98891.92
2018-07-20T06:51:07.878Z,98893.03
2018-07-20T06:54:14.850Z,98890.20
2018-07-20T06:57:18.129Z,98862.23
2018-07-20T07:00:24.227Z,98814.49
2018-07-20T07:03:26.469Z,98754.82
2018-07-20T07:06:33.025Z,98740.64
2018-07-20T07:09:35.365Z,98707.96
2018-07-20T07:13:00.571Z,98624.41
2018-07-20T07:16:03.099Z,98770.45
2018-07-20T07:19:05.538Z,98629.26
2018-07-20T07:22:09.286Z,98667.16
2018-07-20T07:25:11.677Z,98686.11
2018-07-20T07:28:17.531Z,98666.61
2018-07-20T07:31:24.173Z,98716.90
2018-07-20T07:34:28.537Z,98813.48
2018-07-20T07:37:35.657Z,98875.90
2018-07-20T07:40:40.749Z,98720.89
2018-07-20T07:43:45.582Z,98712.55
2018-07-20T07:46:49.621Z,98615.70
2018-07-20T07:49:52.000Z,98845.78
2018-07-20T07:52:55.357Z,98887.32
2018-07-20T07:55:57.650Z,98879.43
2018-07-20T07:58:59.975Z,98853.57
2018-07-20T08:02:03.629Z,98871.63
2018-07-20T08:05:08.133Z,98832.50
2018-07-20T08:08:10.394Z,98894.84
2018-07-20T08:11:12.699Z,98859.70
2018-07-20T08:14:15.134Z,98824.09
2018-07-20T08:17:17.481Z,98867.61
2018-07-20T08:20:20.105Z,99013.44
2018-07-20T08:23:28.607Z,98920.28
2018-07-20T08:26:31.171Z,98849.42
2018-07-20T08:29:34.744Z,98880.03
2018-07-20T08:32:39.253Z,98860.00
2018-07-20T08:35:42.594Z,98881.25
2018-07-20T08:38:48.190Z,98903.40
2018-07-20T08:41:50.406Z,98904.74
2018-07-20T08:44:55.884Z,98871.31
2018-07-20T08:48:03.055Z,98881.77
2018-07-20T08:51:05.422Z,98842.08
2018-07-20T08:54:07.893Z,98863.67
2018-07-20T08:57:15.343Z,98830.21
2018-07-20T09:00:18.144Z,98839.84
2018-07-20T09:03:20.748Z,98775.42
2018-07-20T09:06:24.174Z,98699.57
2018-07-20T09:09:28.848Z,98734.05
2018-07-20T09:12:31.244Z,98755.04
2018-07-20T09:15:35.647Z,98723.30
2018-07-20T09:18:46.600Z,98748.60
2018-07-20T09:21:49.655Z,98783.29
2018-07-20T09:24:56.521Z,98738.03
2018-07-20T09:27:59.080Z,98671.95
2018-07-20T09:31:02.685Z,98648.58
2018-07-20T09:34:07.193Z,98687.70
2018-07-20T09:37:10.521Z,98702.17
2018-07-20T09:40:13.168Z,98673.41
2018-07-20T09:43:16.709Z,98640.06
2018-07-20T09:46:22.870Z,98514.52
2018-07-20T09:49:27.116Z,98368.48
2018-07-20T09:52:30.485Z,98554.54
2018-07-20T09:55:32.906Z,98718.98
2018-07-20T09:58:35.295Z,98677.16
2018-07-20T10:01:37.564Z,98628.41
2018-07-20T10:08:11.204Z,98586.60
2018-07-20T10:11:15.509Z,98650.56
2018-07-20T10:14:17.864Z,98548.70
2018-07-20T10:17:26.144Z,98592.16
2018-07-20T10:20:33.955Z,98656.20
2018-07-20T10:23:38.331Z,98595.86
2018-07-20T10:26:40.619Z,98548.69
2018-07-20T10:29:44.959Z,98463.98
2018-07-20T10:32:49.390Z,98479.39
2018-07-20T10:35:51.725Z,98386.34
2018-07-20T10:38:54.292Z,98320.35
2018-07-20T10:41:57.590Z,98219.94
2018-07-20T10:45:00.093Z,98087.78
2018-07-20T10:48:02.650Z,98135.73
2018-07-20T10:51:05.440Z,98033.79
2018-07-20T10:54:10.161Z,98025.26
2018-07-20T10:57:16.942Z,97926.70
2018-07-20T11:00:19.330Z,97814.41
2018-07-20T11:03:24.674Z,97840.57
2018-07-20T11:06:32.633Z,97856.27
2018-07-20T11:09:40.512Z,97697.75
2018-07-20T11:12:46.037Z,97647.59
2018-07-20T11:15:48.730Z,97554.48
2018-07-20T11:18:51.203Z,97699.72
2018-07-20T11:21:54.807Z,97836.27
2018-07-20T11:24:58.347Z,98159.53
2018-07-20T11:28:00.860Z,98238.66
2018-07-20T11:31:04.290Z,98283.98
2018-07-20T11:34:06.751Z,98186.33
2018-07-20T11:37:11.250Z,98015.25
2018-07-20T11:40:13.801Z,97928.56
2018-07-20T11:43:16.351Z,97878.44
2018-07-20T11:46:18.943Z,97831.54
2018-07-20T11:49:22.515Z,97711.27
2018-07-20T11:52:25.998Z,97671.44
2018-07-20T11:55:28.557Z,97614.78
2018-07-20T11:58:30.948Z,97585.67
2018-07-20T12:01:33.235Z,97687.41
2018-07-20T12:04:47.222Z,97709.56
2018-07-20T12:07:50.765Z,97743.16
2018-07-20T12:10:53.168Z,97733.52
2018-07-20T12:13:59.408Z,97799.41
2018-07-20T12:17:02.765Z,97835.28
2018-07-20T12:20:06.210Z,97885.01
2018-07-20T12:23:10.609Z,98094.81
2018-07-20T12:26:13.939Z,98208.16
2018-07-20T12:29:23.335Z,98273.20
2018-07-20T12:32:25.787Z,98384.28
2018-07-20T12:35:31.314Z,98426.25
2018-07-20T12:38:33.620Z,98533.08
2018-07-20T12:41:36.010Z,98600.42
2018-07-20T12:44:38.422Z,98565.08
2018-07-20T12:47:41.810Z,98594.82
2018-07-20T12:50:49.221Z,98639.19
2018-07-20T12:53:51.926Z,98648.03
2018-07-20T12:57:01.335Z,98539.45
2018-07-20T13:00:04.918Z,98507.83
2018-07-20T13:03:07.412Z,98528.38
2018-07-20T13:06:18.341Z,98564.88
2018-07-20T13:09:26.484Z,98449.41
2018-07-20T13:12:32.443Z,98374.88
2018-07-20T13:15:38.333Z,98241.32
2018-07-20T13:18:45.228Z,98116.88
2018-07-20T13:21:52.091Z,98047.39
2018-07-20T13:24:54.707Z,97894.52
2018-07-20T13:28:01.499Z,97773.41
2018-07-20T13:31:03.855Z,97667.51
2018-07-20T13:34:07.522Z,97582.39
2018-07-20T13:37:12.110Z,97632.59
2018-07-20T13:40:14.643Z,97727.80
2018-07-20T13:43:18.125Z,97710.17
2018-07-20T13:46:20.780Z,97626.30
2018-07-20T13:49:26.746Z,97672.05
2018-07-20T13:52:29.415Z,97662.70
2018-07-20T13:55:31.972Z,97559.34
2018-07-20T13:58:34.461Z,97535.30
2018-07-20T14:01:37.040Z,97644.95
2018-07-20T14:04:39.690Z,97720.70
2018-07-20T14:07:43.363Z,97681.94
2018-07-20T14:10:46.190Z,97689.06
2018-07-20T14:13:48.711Z,97638.16
2018-07-20T14:16:51.114Z,97737.31
2018-07-20T14:19:53.631Z,97599.14
2018-07-20T14:22:56.256Z,97465.97
2018-07-20T14:25:59.049Z,97518.98
2018-07-20T14:29:01.666Z,97417.58
2018-07-20T14:32:04.329Z,97350.53
2018-07-20T14:35:06.937Z,97353.20
2018-07-20T14:38:09.510Z,97392.95
2018-07-20T14:41:11.843Z,97392.84
2018-07-20T14:44:14.312Z,97457.38
2018-07-20T14:47:16.754Z,97666.05
2018-07-20T14:50:19.205Z,97896.52
2018-07-20T14:53:21.647Z,97950.28
2018-07-20T14:56:24.122Z,98069.36
2018-07-20T14:59:26.536Z,98210.37
2018-07-20T15:02:29.071Z,98226.50
2018-07-20T15:05:31.599Z,98215.00
2018-07-20T15:08:34.187Z,98215.66
2018-07-20T15:11:37.319Z,98267.75
2018-07-20T15:14:39.842Z,98143.80
2018-07-20T15:17:42.487Z,98130.66
2018-07-20T15:20:45.135Z,98244.58
2018-07-20T15:23:47.850Z,98303.98
2018-07-20T15:26:51.231Z,98353.56
2018-07-20T15:29:53.626Z,98491.33
2018-07-20T15:32:56.256Z,98476.98
2018-07-20T15:35:58.819Z,98399.75
2018-07-20T15:39:02.500Z,98474.41
2018-07-20T15:42:05.076Z,98404.95
2018-07-20T15:45:08.630Z,98321.54
2018-07-20T15:48:10.877Z,98193.06
2018-07-20T15:51:13.225Z,98017.13
2018-07-20T15:54:15.623Z,97903.00
2018-07-20T15:57:19.101Z,97716.05
2018-07-20T16:00:21.643Z,97582.48
2018-07-20T16:03:24.175Z,97449.39
2018-07-20T16:06:26.569Z,97455.94
2018-07-20T16:09:30.103Z,97773.29
2018-07-20T16:12:32.725Z,97931.52
2018-07-20T16:15:35.289Z,98109.99
2018-07-20T16:18:37.892Z,98148.56
2018-07-20T16:21:40.386Z,98341.20
2018-07-20T16:24:42.980Z,98438.78
2018-07-20T16:27:45.541Z,98535.30
2018-07-20T16:30:48.021Z,98694.72
2018-07-20T16:33:50.503Z,98903.40
2018-07-20T16:36:52.998Z,99063.16
2018-07-20T16:39:55.813Z,99097.50
2018-07-20T16:42:58.599Z,98935.30
2018-07-20T16:46:01.151Z,98845.29
2018-07-20T16:49:03.759Z,98812.23
2018-07-20T16:52:06.169Z,98800.30
2018-07-20T16:55:08.513Z,98737.83
2018-07-20T16:58:12.958Z,98768.23
2018-07-20T17:01:15.309Z,98844.55
2018-07-20T17:04:19.852Z,98978.92
2018-07-20T17:07:24.289Z,99023.21
2018-07-20T17:10:26.780Z,99250.66
2018-07-20T17:13:29.323Z,99302.92
2018-07-20T17:16:31.845Z,99186.27
2018-07-20T17:19:35.496Z,99070.37
2018-07-20T17:22:38.068Z,98897.98
2018-07-20T17:25:41.290Z,98803.95
2018-07-20T17:28:43.670Z,98743.26
2018-07-20T17:31:47.038Z,98698.22
2018-07-20T17:34:50.314Z,98604.02
2018-07-20T17:37:52.618Z,98555.46
2018-07-20T17:40:54.928Z,98526.05
2018-07-20T17:43:57.363Z,98516.84
2018-07-20T17:46:59.677Z,98466.43
2018-07-20T17:50:03.045Z,98476.78
2018-07-20T17:53:07.493Z,98495.31
2018-07-20T17:56:09.869Z,98480.54
2018-07-20T17:59:12.152Z,98528.09
2018-07-20T18:02:14.461Z,98516.48
2018-07-20T18:05:16.666Z,98509.24
2018-07-20T18:08:18.985Z,98491.50
2018-07-20T18:11:21.518Z,98488.97
2018-07-20T18:14:23.877Z,98484.41
2018-07-20T18:17:27.250Z,98495.83
2018-07-20T18:20:29.711Z,98479.28
2018-07-20T18:23:31.973Z,98501.06
2018-07-20T18:26:34.315Z,98510.19
2018-07-20T18:29:36.684Z,98504.31
2018-07-20T18:32:38.965Z,98514.55
2018-07-20T18:35:41.286Z,98516.22
2018-07-20T18:38:49.596Z,98495.61
2018-07-20T18:41:51.785Z,98498.03
2018-07-20T18:44:54.077Z,98508.52
2018-07-20T18:47:56.383Z,98518.80
2018-07-20T18:50:58.598Z,98525.33
2018-07-20T18:54:01.020Z,98513.89
2018-07-20T18:57:03.274Z,98519.03
2018-07-20T19:00:05.905Z,98512.68
2018-07-20T19:03:08.149Z,98511.92
2018-07-20T19:06:10.394Z,98505.87
2018-07-20T19:09:12.717Z,98518.25
2018-07-20T19:12:18.146Z,98517.48
2018-07-20T19:15:20.373Z,98516.17
2018-07-20T19:18:24.644Z,98523.41
2018-07-20T19:21:26.912Z,98518.03
2018-07-20T19:24:29.179Z,98527.88
2018-07-20T19:27:31.466Z,98527.30
2018-07-20T19:30:34.749Z,98528.03
2018-07-20T19:33:37.093Z,98528.48
2018-07-20T19:36:39.389Z,98534.82
2018-07-20T19:39:43.754Z,98528.63
2018-07-20T19:42:46.014Z,98540.05
2018-07-20T19:45:48.274Z,98541.84
2018-07-20T19:48:51.577Z,98532.38
2018-07-20T19:51:53.790Z,98540.80
2018-07-20T19:54:58.113Z,98541.13
2018-07-20T19:58:02.377Z,98543.89
2018-07-20T20:01:04.610Z,98536.48
2018-07-20T20:04:06.922Z,98534.45
2018-07-20T20:07:09.171Z,98549.41
2018-07-20T20:10:13.497Z,98548.33
2018-07-20T20:13:15.859Z,98546.58
2018-07-20T20:16:18.119Z,98543.92
2018-07-20T20:19:20.434Z,98548.13
2018-07-20T20:22:23.681Z,98550.70
2018-07-20T20:25:25.915Z,98541.62
2018-07-20T20:28:28.182Z,98540.22
2018-07-20T20:31:30.404Z,98544.47
2018-07-20T20:34:32.723Z,98537.76
2018-07-20T20:37:34.957Z,98538.53
2018-07-20T20:40:39.249Z,98535.56
2018-07-20T20:43:41.675Z,98535.07
2018-07-20T20:46:43.985Z,98539.03
2018-07-20T20:49:46.297Z,98535.75
2018-07-20T20:52:48.566Z,98538.09
2018-07-20T20:55:50.846Z,98534.67
2018-07-20T20:58:53.159Z,98537.42
2018-07-20T21:01:55.449Z,98534.61
2018-07-20T21:04:58.834Z,98528.80
2018-07-20T21:08:01.034Z,98539.15
2018-07-20T21:11:04.275Z,98543.39
2018-07-20T21:14:06.550Z,98539.59
2018-07-20T21:17:09.817Z,98544.28
2018-07-20T21:20:14.190Z,98540.02
2018-07-20T21:23:16.491Z,98538.69
2018-07-20T21:26:19.715Z,98534.39
2018-07-20T21:29:21.901Z,98525.03
2018-07-20T21:32:24.129Z,98521.27
2018-07-20T21:35:27.429Z,98520.25
2018-07-20T21:38:29.689Z,98519.20
2018-07-20T21:41:32.874Z,98518.92
2018-07-20T21:44:35.201Z,98520.51
2018-07-20T21:47:37.424Z,98525.58
2018-07-20T21:50:39.639Z,98534.39
2018-07-20T21:53:41.875Z,98533.06
2018-07-20T21:56:44.170Z,98522.09
2018-07-20T21:59:48.390Z,98515.64
2018-07-20T22:02:50.638Z,98518.30
2018-07-20T22:05:52.949Z,98517.80
2018-07-20T22:08:55.187Z,98522.37
2018-07-20T22:11:57.418Z,98513.88
2018-07-20T22:14:59.648Z,98506.73
2018-07-20T22:18:01.859Z,98514.77
2018-07-20T22:21:04.196Z,98510.75
2018-07-20T22:24:09.837Z,98520.83
2018-07-20T22:27:12.105Z,98519.98
2018-07-20T22:30:17.446Z,98520.47
2018-07-20T22:33:20.897Z,98529.73
2018-07-20T22:36:24.331Z,98536.03
2018-07-20T22:39:26.797Z,98530.50
2018-07-20T22:42:30.086Z,98527.05
2018-07-20T22:45:32.426Z,98521.47
2018-07-20T22:48:34.662Z,98529.20
2018-07-20T22:51:36.891Z,98522.02
2018-07-20T22:54:39.137Z,98522.52
2018-07-20T22:57:41.324Z,98517.16
2018-07-20T23:00:43.573Z,98515.69
2018-07-20T23:03:46.134Z,98522.73
2018-07-20T23:06:48.437Z,98517.27
2018-07-20T23:09:50.882Z,98513.71
2018-07-20T23:12:53.138Z,98513.16
2018-07-20T23:15:56.392Z,98505.24
2018-07-20T23:18:58.722Z,98507.28
2018-07-20T23:22:00.949Z,98510.85
2018-07-20T23:25:03.349Z,98511.66
2018-07-20T23:28:06.547Z,98514.21
2018-07-20T23:31:08.725Z,98508.48
2018-07-20T23:34:11.069Z,98507.50
2018-07-20T23:37:15.310Z,98498.66
2018-07-20T23:40:17.736Z,98497.82
2018-07-20T23:43:19.906Z,98498.06
2018-07-20T23:46:22.134Z,98493.06
2018-07-20T23:49:25.438Z,98496.07
2018-07-20T23:52:27.697Z,98484.95
2018-07-20T23:55:29.969Z,98487.58
2018-07-20T23:58:32.261Z,98488.25
